Impacts METAR Board INFO
IDs:

KCLE - Cleveland/Hopkins In, OH, US

Updated at: 1940 UTC 12 Dec 2017
Potential Impact None Slight Moderate High
Time12/07Z 12/08Z 12/09Z 12/10Z 12/11Z 12/12Z 12/13Z 12/14Z 12/15Z 12/16Z 12/17Z 12/18Z 12/19Z
VIS3 1.75 3 1.5 4 6 6 1.75 5 10 0.75 1.5 1.75
CIG34 8 4 7 26 30 24 25 24 34 16 23 25
CoverOVCOVCOVCOVCOVCOVCOVCOVCOVCOVCOVCOVCOVC
FltCatMVFRIFRLIFRIFRMVFRMVFRMVFRIFRMVFRVFRLIFRIFRIFR
WX-SN BR-SN BR-SN BR-SN BR-SN BR-SN-SN-SN BLSN-SN BLSN---SN BLSN-SN BLSN-SN BLSN
WDir0280300300310310310310310320310300300
WSpd0 6 12 14 15 17 13 20 19 18 13 18 17
WGst-- -- 20 -- 24 20 30 28 28 25 -- 24 23
Raw hourly METARs
KCLE 120702Z 00000KT 3SM -SN BR SCT027 BKN034 OVC046 00/M01 A2962 RMK AO2 P0000 T00001006
KCLE 120805Z 28006KT 1 3/4SM -SN BR BKN008 OVC014 01/M01 A2963 RMK AO2 P0001 T00061006
KCLE 120901Z 30012G20KT 3SM -SN BR OVC004 01/00 A2964 RMK AO2 P0001 T00060000
KCLE 121004Z 30014KT 1 1/2SM -SN BR OVC007 01/M01 A2965 RMK AO2 P0000 T00061006
KCLE 121051Z 31015G24KT 4SM -SN BR SCT007 BKN026 OVC035 00/M02 A2968 RMK AO2 SLP060 P0004 T00001022
KCLE 121201Z 31017G20KT 6SM -SN FEW023 BKN030 OVC050 M01/M05 A2972 RMK AO2 P0000 T10111050
KCLE 121251Z 31013G30KT 6SM -SN SCT018 BKN024 OVC041 M02/M05 A2975 RMK AO2 PK WND 32030/1242 SLP082 P0001 T10171050
KCLE 121358Z 31020G28KT 1 3/4SM -SN BLSN OVC025 M03/M07 A2978 RMK AO2 PK WND 31028/1356 P0000 T10281067
KCLE 121451Z 31019G28KT 5SM -SN BLSN BKN024 OVC031 M04/M08 A2980 RMK AO2 PK WND 31028/1446 SLP100 P0001 60002 T10391083 52028
KCLE 121551Z 32018G25KT 10SM FEW028 BKN034 OVC050 M04/M11 A2983 RMK AO2 PK WND 29028/1517 SNE02 SLP109 P0000 T10441106
KCLE 121651Z 31013KT 3/4SM -SN BLSN BKN016 BKN024 OVC031 M06/M08 A2983 RMK AO2 SNB1558 SLP109 P0000 T10561083
KCLE 121804Z 30018G24KT 1 1/2SM -SN BLSN BKN023 BKN029 OVC037 M06/M11 A2982 RMK AO2 P0000 T10611111
KCLE 121853Z 30017G23KT 1 3/4SM -SN BLSN BKN025 BKN030 OVC038 M06/M12 A2983 RMK AO2 P0000 T10611117